Time;durP1;ratioP1;P1;durP2;ratioP2;P2;SDS_P1;SDS_P2;PMS_P1;PMS_P2;Temp;Humidity;BMP_temperature;BMP_pressure;BME280_temperature;BME280_humidity;BME280_pressure;Samples;Min_cycle;Max_cycle;Signal;HPM_P1;HPM_P2
2023/06/29 00:01:10;;;;;;;0.10;0.10;;;16.40;65.70;;;;;;5132610;27;20402;-80
2023/06/29 00:03:36;;;;;;;0.47;0.40;;;16.30;65.50;;;;;;5133043;27;20117;-82
2023/06/29 00:06:02;;;;;;;2.00;0.90;;;16.30;65.50;;;;;;5132586;27;20035;-79
2023/06/29 00:08:35;;;;;;;0.10;0.10;;;16.20;65.30;;;;;;5115377;28;20047;-82
2023/06/29 00:11:04;;;;;;;0.10;0.10;;;16.10;65.40;;;;;;5115966;28;20043;-82
2023/06/29 00:13:30;;;;;;;0.20;0.20;;;16.00;65.70;;;;;;5115937;28;20027;-79
2023/06/29 00:15:56;;;;;;;0.20;0.20;;;16.00;65.90;;;;;;5132420;28;20061;-82
2023/06/29 00:18:28;;;;;;;0.20;0.10;;;16.00;65.70;;;;;;5132649;28;20031;-79
2023/06/29 00:20:54;;;;;;;0.35;0.20;;;16.00;65.60;;;;;;5132475;28;20031;-82
2023/06/29 00:23:21;;;;;;;0.65;0.65;;;16.00;65.40;;;;;;5115623;28;20031;-79
2023/06/29 00:25:47;;;;;;;5.78;0.47;;;16.00;64.80;;;;;;5133837;27;20035;-81
2023/06/29 00:28:14;;;;;;;0.45;0.38;;;15.90;65.70;;;;;;5132726;28;20031;-81
2023/06/29 00:30:40;;;;;;;0.30;0.20;;;15.80;65.20;;;;;;5131862;28;20074;-79
2023/06/29 00:33:06;;;;;;;0.63;0.63;;;15.70;66.20;;;;;;5132462;28;20372;-81
2023/06/29 00:35:32;;;;;;;0.25;0.25;;;15.80;66.10;;;;;;5115062;28;20063;-81
2023/06/29 00:37:58;;;;;;;0.10;0.10;;;15.80;65.90;;;;;;5136104;27;20037;-78
2023/06/29 00:40:25;;;;;;;0.30;0.30;;;15.80;65.80;;;;;;5135999;27;20047;-79
2023/06/29 00:42:51;;;;;;;;;;;15.80;65.70;;;;;;5137166;27;20058;-79
2023/06/29 00:45:17;;;;;;;1.23;0.55;;;15.70;65.70;;;;;;5136134;27;19960;-80
2023/06/29 00:47:43;;;;;;;0.63;0.40;;;15.70;65.90;;;;;;5136450;27;20042;-80
2023/06/29 00:50:10;;;;;;;0.30;0.30;;;15.70;66.00;;;;;;5136005;27;20073;-80
2023/06/29 00:52:36;;;;;;;0.30;0.22;;;15.70;65.60;;;;;;5136363;27;20036;-80
2023/06/29 00:55:03;;;;;;;1.02;0.95;;;15.70;66.40;;;;;;5119084;27;20031;-78
2023/06/29 00:57:29;;;;;;;0.55;0.55;;;15.70;65.60;;;;;;5135841;27;20035;-80
2023/06/29 00:59:59;;;;;;;;;;;15.70;66.20;;;;;;5136767;27;20027;-81
2023/06/29 01:02:46;;;;;;;0.17;0.17;;;15.60;65.80;;;;;;5135685;27;19927;-80
2023/06/29 01:05:15;;;;;;;0.30;0.28;;;15.60;66.20;;;;;;5135703;27;20387;-81
2023/06/29 01:08:19;;;;;;;0.55;0.50;;;15.50;66.40;;;;;;5136018;27;20435;-79
2023/06/29 01:10:47;;;;;;;0.68;0.25;;;15.60;66.50;;;;;;5117943;27;20115;-79
2023/06/29 01:13:17;;;;;;;0.47;0.40;;;15.60;66.50;;;;;;5135827;27;20034;-79
2023/06/29 01:15:46;;;;;;;0.50;0.50;;;15.60;66.40;;;;;;5135239;27;20033;-79
2023/06/29 01:18:13;;;;;;;0.10;0.10;;;15.50;66.40;;;;;;5135837;27;20058;-79
2023/06/29 01:20:41;;;;;;;0.20;0.20;;;15.60;66.50;;;;;;5118081;27;20031;-80
2023/06/29 01:23:27;;;;;;;0.30;0.30;;;15.50;66.50;;;;;;5135860;27;20058;-79
2023/06/29 01:25:55;;;;;;;1.13;0.35;;;15.50;66.40;;;;;;5135391;27;20107;-79
2023/06/29 01:28:21;;;;;;;0.17;0.17;;;15.40;66.50;;;;;;5135558;27;20039;-81
2023/06/29 01:30:51;;;;;;;0.40;0.30;;;15.40;66.60;;;;;;5118103;27;20121;-79
2023/06/29 01:33:37;;;;;;;0.10;0.10;;;15.40;66.40;;;;;;5136736;27;20047;-81
2023/06/29 01:36:41;;;;;;;0.55;0.40;;;15.40;66.30;;;;;;5117864;27;20035;-79
2023/06/29 01:39:31;;;;;;;0.10;0.10;;;15.30;66.30;;;;;;5135463;27;20126;-79
2023/06/29 01:41:59;;;;;;;0.10;0.10;;;15.30;66.30;;;;;;5136221;27;20047;-79
2023/06/29 01:44:25;;;;;;;0.20;0.20;;;15.30;66.20;;;;;;5118037;27;20129;-79
2023/06/29 01:46:52;;;;;;;;;;;15.20;66.00;;;;;;5118211;27;20028;-79
2023/06/29 01:49:19;;;;;;;0.20;0.20;;;15.20;66.50;;;;;;5136080;27;20447;-79
2023/06/29 01:51:45;;;;;;;0.45;0.38;;;15.20;66.70;;;;;;5134943;27;20515;-79
2023/06/29 01:54:11;;;;;;;0.28;0.20;;;15.20;66.80;;;;;;5136525;27;20031;-82
2023/06/29 01:56:38;;;;;;;0.57;0.35;;;15.10;67.20;;;;;;5117588;27;20567;-79
2023/06/29 01:59:04;;;;;;;0.90;0.55;;;15.10;67.20;;;;;;5117918;27;20053;-81
2023/06/29 02:01:30;;;;;;;;;;;15.00;67.10;;;;;;5135095;27;20035;-79
2023/06/29 02:03:56;;;;;;;0.10;0.10;;;15.00;66.50;;;;;;5134858;27;20005;-82
2023/06/29 02:06:23;;;;;;;0.75;0.47;;;15.00;66.90;;;;;;5117225;27;20039;-79
2023/06/29 02:08:49;;;;;;;0.20;0.20;;;15.00;66.90;;;;;;5134576;27;20035;-79
2023/06/29 02:11:15;;;;;;;0.93;0.30;;;15.00;66.90;;;;;;5117048;27;20039;-81
2023/06/29 02:13:41;;;;;;;0.43;0.20;;;15.00;66.70;;;;;;5134757;27;20039;-81
2023/06/29 02:16:07;;;;;;;0.22;0.20;;;15.00;66.60;;;;;;5117128;27;20028;-81
2023/06/29 02:18:33;;;;;;;0.40;0.35;;;14.90;66.70;;;;;;5117627;27;20491;-81
2023/06/29 02:20:59;;;;;;;0.60;0.50;;;15.00;67.30;;;;;;5117043;27;20027;-80
2023/06/29 02:23:25;;;;;;;0.10;0.10;;;14.90;66.70;;;;;;5134551;27;20459;-79
2023/06/29 02:25:52;;;;;;;0.30;0.20;;;14.90;66.60;;;;;;5117132;27;20499;-81
2023/06/29 02:28:18;;;;;;;0.20;0.10;;;14.90;66.60;;;;;;5117485;27;20077;-82
2023/06/29 02:30:44;;;;;;;0.10;0.10;;;14.90;66.20;;;;;;5116996;27;20046;-82
2023/06/29 02:33:10;;;;;;;0.65;0.52;;;14.90;66.20;;;;;;5134657;27;20027;-79
2023/06/29 02:35:36;;;;;;;0.22;0.20;;;14.80;66.30;;;;;;5134047;27;20039;-82
2023/06/29 02:38:02;;;;;;;0.70;0.57;;;14.80;66.30;;;;;;5117338;27;20064;-80
2023/06/29 02:40:28;;;;;;;0.20;0.20;;;14.80;66.40;;;;;;5135303;27;20046;-79
2023/06/29 02:42:54;;;;;;;0.40;0.32;;;14.70;66.90;;;;;;5116962;27;20031;-78
2023/06/29 02:45:20;;;;;;;0.35;0.35;;;14.70;67.20;;;;;;5116431;27;20031;-79
2023/06/29 02:47:46;;;;;;;0.10;0.10;;;14.70;67.20;;;;;;5117111;27;20031;-82
2023/06/29 02:50:12;;;;;;;0.20;0.17;;;14.70;67.10;;;;;;5116694;27;20122;-79
2023/06/29 02:52:38;;;;;;;0.57;0.17;;;14.70;67.10;;;;;;5117177;27;20038;-82
2023/06/29 02:55:05;;;;;;;0.55;0.40;;;14.80;67.40;;;;;;5133945;27;20035;-82
2023/06/29 02:57:32;;;;;;;0.60;0.60;;;14.80;67.30;;;;;;5116940;27;20046;-79
2023/06/29 02:59:58;;;;;;;0.17;0.17;;;14.80;67.40;;;;;;5133321;27;20031;-79
2023/06/29 03:02:24;;;;;;;7.00;0.73;;;14.80;67.30;;;;;;5116466;27;20042;-80
2023/06/29 03:04:50;;;;;;;0.20;0.20;;;14.80;67.30;;;;;;5133946;27;20034;-79
2023/06/29 03:07:16;;;;;;;0.60;0.40;;;14.90;67.50;;;;;;5116464;27;20065;-83
2023/06/29 03:09:42;;;;;;;0.10;0.10;;;14.90;67.40;;;;;;5116316;27;20491;-82
2023/06/29 03:12:09;;;;;;;1.75;0.60;;;14.90;67.30;;;;;;5116129;27;20035;-82
2023/06/29 03:14:36;;;;;;;0.17;0.17;;;14.90;67.10;;;;;;5116423;27;20027;-83
2023/06/29 03:17:02;;;;;;;0.20;0.20;;;15.00;67.10;;;;;;5133135;27;20031;-79
2023/06/29 03:19:28;;;;;;;0.20;0.20;;;15.00;67.20;;;;;;5116666;27;20276;-82
2023/06/29 03:21:54;;;;;;;0.47;0.43;;;15.10;67.20;;;;;;5116176;27;20031;-82
2023/06/29 03:24:20;;;;;;;0.20;0.20;;;15.10;67.20;;;;;;5116507;27;20031;-82
2023/06/29 03:26:46;;;;;;;0.32;0.30;;;15.20;67.50;;;;;;5133410;27;20475;-83
2023/06/29 03:29:12;;;;;;;0.32;0.22;;;15.20;67.60;;;;;;5116435;27;20035;-82
2023/06/29 03:31:39;;;;;;;0.20;0.20;;;15.10;67.60;;;;;;5132841;27;20043;-79
2023/06/29 03:34:05;;;;;;;0.15;0.15;;;15.10;67.70;;;;;;5134634;27;20039;-82
2023/06/29 03:36:31;;;;;;;0.22;0.22;;;15.10;67.80;;;;;;5132831;27;20035;-81
2023/06/29 03:38:57;;;;;;;;;;;15.00;68.20;;;;;;5134991;27;20498;-79
2023/06/29 03:41:23;;;;;;;0.20;0.20;;;15.00;68.20;;;;;;5132844;27;19915;-83
2023/06/29 03:43:49;;;;;;;0.13;0.10;;;15.00;68.90;;;;;;5115915;27;20036;-79
2023/06/29 03:46:15;;;;;;;0.43;0.22;;;15.00;68.20;;;;;;5115813;27;20039;-82
2023/06/29 03:48:41;;;;;;;0.35;0.35;;;15.00;68.20;;;;;;5134756;27;20364;-79
2023/06/29 03:51:07;;;;;;;0.50;0.22;;;15.00;68.00;;;;;;5115443;27;20038;-78
2023/06/29 03:53:33;;;;;;;1.85;0.35;;;15.00;68.30;;;;;;5115797;27;20024;-79
2023/06/29 03:55:59;;;;;;;0.25;0.25;;;15.00;68.50;;;;;;5115829;27;20031;-81
2023/06/29 03:58:25;;;;;;;0.73;0.47;;;15.00;68.40;;;;;;5133068;27;20497;-83
2023/06/29 04:00:51;;;;;;;0.60;0.40;;;15.10;68.20;;;;;;5132535;27;20041;-79
2023/06/29 04:03:17;;;;;;;0.40;0.30;;;15.20;68.10;;;;;;5115768;28;20031;-79
2023/06/29 04:05:43;;;;;;;0.28;0.17;;;15.20;68.00;;;;;;5115659;27;20031;-79
2023/06/29 04:08:09;;;;;;;0.47;0.47;;;15.30;67.80;;;;;;5132897;27;20027;-82
2023/06/29 04:10:35;;;;;;;0.17;0.17;;;15.40;67.60;;;;;;5132443;28;20055;-83
2023/06/29 04:13:02;;;;;;;0.10;0.10;;;15.40;67.50;;;;;;5132682;27;20065;-83
2023/06/29 04:15:29;;;;;;;0.20;0.20;;;15.40;67.40;;;;;;5115264;28;20034;-78
2023/06/29 04:17:56;;;;;;;0.90;0.50;;;15.40;67.70;;;;;;5116089;28;20128;-82
2023/06/29 04:20:22;;;;;;;0.65;0.50;;;15.50;67.80;;;;;;5132560;27;20031;-80
2023/06/29 04:22:48;;;;;;;0.10;0.10;;;15.50;67.60;;;;;;5115742;28;20027;-83
2023/06/29 04:25:14;;;;;;;0.10;0.10;;;15.60;67.60;;;;;;5134218;27;20031;-83
2023/06/29 04:27:42;;;;;;;0.90;0.70;;;15.60;67.50;;;;;;5133040;28;20033;-84
2023/06/29 04:30:09;;;;;;;0.25;0.25;;;15.60;67.40;;;;;;5132285;28;20043;-79
2023/06/29 04:32:35;;;;;;;0.43;0.35;;;15.50;67.70;;;;;;5115706;28;20039;-83
2023/06/29 04:35:02;;;;;;;0.20;0.20;;;15.50;68.20;;;;;;5132858;28;20035;-82
2023/06/29 04:40:14;;;;;;;0.25;0.22;;;15.50;68.40;;;;;;5132509;28;20043;-80
2023/06/29 04:45:24;;;;;;;0.17;0.17;;;15.60;67.90;;;;;;5132325;28;20116;-78
2023/06/29 04:47:51;;;;;;;0.93;0.60;;;15.70;67.70;;;;;;5115553;28;20027;-83
2023/06/29 04:50:38;;;;;;;0.10;0.10;;;15.80;67.50;;;;;;5115376;28;20480;-83
2023/06/29 04:53:09;;;;;;;0.25;0.20;;;15.80;67.30;;;;;;5132797;28;20130;-79
2023/06/29 04:55:55;;;;;;;0.57;0.40;;;15.90;67.20;;;;;;5133114;27;20061;-83
2023/06/29 04:58:21;;;;;;;0.20;0.20;;;16.00;67.20;;;;;;5132618;28;20365;-83
2023/06/29 05:00:48;;;;;;;0.50;0.30;;;16.10;67.20;;;;;;5115128;28;20395;-83
2023/06/29 05:03:14;;;;;;;0.10;0.10;;;16.10;67.00;;;;;;5132593;28;20144;-80
2023/06/29 05:05:40;;;;;;;0.65;0.40;;;16.20;66.80;;;;;;5131950;28;20106;-83
2023/06/29 05:08:06;;;;;;;0.20;0.20;;;16.30;66.90;;;;;;5132587;28;20038;-82
2023/06/29 05:10:33;;;;;;;0.20;0.20;;;16.40;66.60;;;;;;5131545;27;20495;-82
2023/06/29 05:12:59;;;;;;;0.10;0.10;;;16.40;65.80;;;;;;5115103;28;20031;-82
2023/06/29 05:15:25;;;;;;;0.40;0.15;;;16.60;66.50;;;;;;5114663;28;20039;-81
2023/06/29 05:17:52;;;;;;;0.10;0.10;;;16.60;66.20;;;;;;5115087;28;20105;-81
2023/06/29 05:20:19;;;;;;;0.20;0.20;;;16.70;66.30;;;;;;5114805;28;20031;-79
2023/06/29 05:22:45;;;;;;;0.52;0.40;;;16.70;65.60;;;;;;5132185;27;20041;-79
2023/06/29 05:25:11;;;;;;;0.17;0.17;;;16.90;66.10;;;;;;5117966;27;20034;-81
2023/06/29 05:27:37;;;;;;;0.25;0.25;;;17.00;65.90;;;;;;5118596;27;20123;-81
2023/06/29 05:30:04;;;;;;;0.22;0.22;;;17.10;65.70;;;;;;5135561;27;20031;-81
2023/06/29 05:32:32;;;;;;;0.90;0.30;;;17.10;65.40;;;;;;5135478;27;20404;-79
2023/06/29 05:34:59;;;;;;;0.30;0.25;;;17.20;65.40;;;;;;5135509;27;20037;-79
2023/06/29 05:37:25;;;;;;;;;;;17.20;65.40;;;;;;5135557;27;20059;-80
2023/06/29 05:39:51;;;;;;;0.20;0.20;;;17.30;65.70;;;;;;5136952;27;20005;-81
2023/06/29 05:42:17;;;;;;;0.20;0.20;;;17.30;65.10;;;;;;5135054;27;20031;-78
2023/06/29 05:44:43;;;;;;;0.10;0.10;;;17.40;65.00;;;;;;5135250;27;20039;-82
2023/06/29 05:47:09;;;;;;;0.25;0.25;;;17.40;65.00;;;;;;5135118;27;20436;-82
2023/06/29 05:49:35;;;;;;;;;;;17.50;64.80;;;;;;5118976;27;20073;-79
2023/06/29 05:52:01;;;;;;;0.75;0.63;;;17.60;64.70;;;;;;5134870;27;19916;-84
2023/06/29 05:54:27;;;;;;;0.10;0.10;;;17.70;64.50;;;;;;5118438;27;20387;-83
2023/06/29 05:56:53;;;;;;;0.60;0.32;;;17.70;64.70;;;;;;5135016;27;20035;-84
2023/06/29 05:59:19;;;;;;;0.65;0.50;;;17.70;64.60;;;;;;5118529;27;20031;-85
2023/06/29 06:01:45;;;;;;;0.70;0.45;;;17.80;64.40;;;;;;5117745;27;20063;-86
2023/06/29 06:04:11;;;;;;;1.13;0.40;;;17.80;64.60;;;;;;5135246;27;20035;-79
2023/06/29 06:06:39;;;;;;;0.30;0.30;;;17.80;64.60;;;;;;5117786;27;20035;-85
2023/06/29 06:09:06;;;;;;;0.32;0.30;;;17.70;64.90;;;;;;5135096;27;20043;-86
2023/06/29 06:11:32;;;;;;;0.22;0.22;;;17.70;65.00;;;;;;5134961;27;20046;-86
2023/06/29 06:13:58;;;;;;;;;;;17.80;64.50;;;;;;5135754;27;20037;-80
2023/06/29 06:16:24;;;;;;;0.45;0.30;;;17.90;64.60;;;;;;5117443;27;19915;-85
2023/06/29 06:18:50;;;;;;;0.10;0.10;;;18.00;63.50;;;;;;5117941;27;20084;-85
2023/06/29 06:21:16;;;;;;;0.52;0.32;;;18.10;63.90;;;;;;5134745;27;20027;-80
2023/06/29 06:23:42;;;;;;;;;;;18.20;63.40;;;;;;5118439;27;20047;-85
2023/06/29 06:26:08;;;;;;;0.88;0.43;;;18.30;63.70;;;;;;5117420;27;19916;-84
2023/06/29 06:28:34;;;;;;;0.85;0.82;;;18.30;63.80;;;;;;5117595;27;20511;-84
2023/06/29 06:31:00;;;;;;;0.32;0.28;;;18.40;63.60;;;;;;5134680;27;20476;-81
2023/06/29 06:33:30;;;;;;;0.20;0.20;;;18.50;63.30;;;;;;5134524;27;20039;-80
2023/06/29 06:36:16;;;;;;;0.20;0.20;;;18.70;63.10;;;;;;5134232;27;20039;-81
2023/06/29 06:38:42;;;;;;;0.65;0.30;;;18.80;63.00;;;;;;5117489;27;20035;-84
2023/06/29 06:41:09;;;;;;;0.75;0.30;;;18.90;63.00;;;;;;5117133;27;20031;-81
2023/06/29 06:43:35;;;;;;;0.20;0.20;;;19.00;62.70;;;;;;5134505;27;20421;-83
2023/06/29 06:46:01;;;;;;;0.60;0.50;;;19.20;62.60;;;;;;5117142;27;20042;-81
2023/06/29 06:48:28;;;;;;;0.55;0.28;;;19.20;62.70;;;;;;5134271;27;20505;-80
2023/06/29 06:50:54;;;;;;;1.48;1.30;;;19.40;63.00;;;;;;5116981;27;20131;-81
2023/06/29 06:53:20;;;;;;;0.20;0.20;;;19.40;62.60;;;;;;5116939;27;20463;-81
2023/06/29 06:55:46;;;;;;;0.28;0.22;;;19.50;62.60;;;;;;5116546;27;20039;-81
2023/06/29 06:58:12;;;;;;;0.20;0.20;;;19.60;62.30;;;;;;5134108;27;20027;-81
2023/06/29 07:00:38;;;;;;;0.25;0.25;;;19.70;62.30;;;;;;5133486;27;20038;-82
2023/06/29 07:03:04;;;;;;;0.40;0.38;;;19.80;62.00;;;;;;5134130;27;20031;-80
2023/06/29 07:05:30;;;;;;;;;;;19.90;61.40;;;;;;5134914;27;20038;-82
2023/06/29 07:07:56;;;;;;;0.20;0.20;;;19.90;61.20;;;;;;5133891;27;20257;-81
2023/06/29 07:10:22;;;;;;;0.30;0.30;;;20.10;60.40;;;;;;5115886;27;20070;-81
2023/06/29 07:12:48;;;;;;;;;;;20.20;59.60;;;;;;5116915;27;20035;-80
2023/06/29 07:15:15;;;;;;;0.20;0.20;;;20.40;59.80;;;;;;5116152;27;19919;-81
2023/06/29 07:17:41;;;;;;;0.38;0.30;;;20.60;59.00;;;;;;5116394;27;20045;-82
2023/06/29 07:20:08;;;;;;;0.30;0.20;;;20.80;58.90;;;;;;5133398;27;20383;-81
2023/06/29 07:22:34;;;;;;;0.80;0.55;;;20.80;58.70;;;;;;5116563;27;20049;-80
2023/06/29 07:25:00;;;;;;;0.60;0.30;;;20.90;59.60;;;;;;5133310;27;20587;-79
2023/06/29 07:27:26;;;;;;;0.25;0.25;;;20.90;59.50;;;;;;5132806;27;20031;-82
2023/06/29 07:29:53;;;;;;;0.35;0.20;;;21.00;58.50;;;;;;5115997;27;20028;-81
2023/06/29 07:32:19;;;;;;;0.32;0.22;;;21.00;58.30;;;;;;5132746;27;20062;-78
2023/06/29 07:34:45;;;;;;;;;;;21.10;57.90;;;;;;5135190;27;20068;-80
2023/06/29 07:37:11;;;;;;;0.35;0.35;;;21.10;57.70;;;;;;5115687;27;19915;-80
2023/06/29 07:39:37;;;;;;;0.13;0.13;;;21.30;57.50;;;;;;5115817;27;20118;-81
2023/06/29 07:42:04;;;;;;;;;;;21.40;57.60;;;;;;5133269;27;20130;-79
2023/06/29 07:44:30;;;;;;;0.47;0.47;;;21.50;57.30;;;;;;5111670;27;19998;-81
2023/06/29 07:46:56;;;;;;;0.80;0.32;;;21.50;57.70;;;;;;5091171;28;20039;-81
2023/06/29 07:49:22;;;;;;;0.50;0.50;;;21.70;57.60;;;;;;5075145;28;20028;-81
2023/06/29 07:51:49;;;;;;;0.55;0.55;;;21.70;56.60;;;;;;5091443;28;20115;-80
2023/06/29 07:54:16;;;;;;;0.20;0.20;;;21.70;54.90;;;;;;5093464;28;20040;-81
2023/06/29 07:56:42;;;;;;;0.65;0.65;;;21.90;56.20;;;;;;5091373;28;20048;-80
2023/06/29 07:59:08;;;;;;;;;;;22.00;56.30;;;;;;5075687;28;20100;-81
2023/06/29 08:01:36;;;;;;;0.30;0.30;;;22.10;56.40;;;;;;5091594;28;20319;-81
2023/06/29 08:04:03;;;;;;;2.15;1.95;;;22.10;56.20;;;;;;5091929;28;20035;-79
2023/06/29 08:06:29;;;;;;;3.65;0.55;;;22.30;55.70;;;;;;5092703;28;20043;-82
2023/06/29 08:08:56;;;;;;;0.13;0.10;;;22.30;55.80;;;;;;5091862;28;20079;-80
2023/06/29 08:11:21;;;;;;;;;;;22.50;55.90;;;;;;5074985;28;20036;-79
2023/06/29 08:13:47;;;;;;;1.67;0.30;;;22.60;56.00;;;;;;5091700;28;19915;-78
2023/06/29 08:16:14;;;;;;;;;;;22.60;55.00;;;;;;5091762;28;20031;-79
2023/06/29 08:18:40;;;;;;;0.20;0.20;;;22.70;55.20;;;;;;5092894;28;19969;-82
2023/06/29 08:21:06;;;;;;;;;;;22.70;54.40;;;;;;5091862;28;20028;-80
2023/06/29 08:23:33;;;;;;;0.25;0.22;;;22.80;54.50;;;;;;5091518;28;19916;-80
2023/06/29 08:25:59;;;;;;;0.90;0.57;;;22.80;52.20;;;;;;5074114;28;20040;-79
2023/06/29 08:28:25;;;;;;;0.45;0.30;;;22.80;51.50;;;;;;5091252;28;20052;-79
2023/06/29 08:30:51;;;;;;;;;;;22.80;51.70;;;;;;5092830;28;20024;-78
2023/06/29 08:33:17;;;;;;;0.52;0.43;;;23.00;52.30;;;;;;5074837;28;20383;-79
2023/06/29 08:35:43;;;;;;;;;;;23.10;52.60;;;;;;5074411;28;20040;-82
2023/06/29 08:38:09;;;;;;;0.32;0.30;;;23.30;52.20;;;;;;5074756;28;19912;-79
2023/06/29 08:40:35;;;;;;;;;;;23.30;51.30;;;;;;5091470;28;20043;-80
2023/06/29 08:43:02;;;;;;;0.17;0.17;;;23.40;51.10;;;;;;5074521;28;19911;-79
2023/06/29 08:45:29;;;;;;;0.47;0.45;;;23.40;51.40;;;;;;5073893;28;20059;-79
2023/06/29 08:47:56;;;;;;;0.25;0.25;;;23.40;50.60;;;;;;5092651;28;20107;-79
2023/06/29 08:51:02;;;;;;;0.20;0.20;;;23.50;49.90;;;;;;5090752;28;20097;-79
2023/06/29 08:53:29;;;;;;;0.63;0.43;;;23.70;50.30;;;;;;5091292;28;20027;-79
2023/06/29 08:55:57;;;;;;;0.28;0.28;;;23.70;49.50;;;;;;5073941;28;20396;-80
2023/06/29 08:58:24;;;;;;;0.50;0.45;;;23.80;49.00;;;;;;5074923;28;20060;-79
2023/06/29 09:00:52;;;;;;;0.32;0.30;;;23.80;48.30;;;;;;5095867;28;20035;-81
2023/06/29 09:03:21;;;;;;;0.47;0.30;;;23.90;48.90;;;;;;5095112;28;20384;-80
2023/06/29 09:05:47;;;;;;;0.30;0.30;;;24.00;48.30;;;;;;5094430;28;20064;-80
2023/06/29 09:08:13;;;;;;;0.55;0.55;;;24.20;48.30;;;;;;5095240;28;20484;-82
2023/06/29 09:10:59;;;;;;;0.25;0.20;;;24.30;48.70;;;;;;5077353;28;20109;-79
2023/06/29 09:13:46;;;;;;;0.73;0.73;;;24.40;48.20;;;;;;5094685;28;20443;-80
2023/06/29 09:16:17;;;;;;;0.82;0.20;;;24.50;45.60;;;;;;5077745;28;20047;-79
2023/06/29 09:18:49;;;;;;;1.35;0.65;;;24.50;45.70;;;;;;5094883;28;20036;-81
2023/06/29 09:21:19;;;;;;;1.05;0.50;;;24.60;46.80;;;;;;5094245;28;20036;-79
2023/06/29 09:23:45;;;;;;;0.20;0.20;;;24.60;44.30;;;;;;5094761;28;20557;-79
2023/06/29 09:26:11;;;;;;;0.15;0.13;;;24.70;42.20;;;;;;5094197;28;20086;-80
2023/06/29 09:28:45;;;;;;;1.00;0.93;;;24.70;43.70;;;;;;5077576;28;20063;-80
2023/06/29 09:31:12;;;;;;;0.30;0.30;;;24.90;43.70;;;;;;5077123;28;20044;-78
2023/06/29 09:33:38;;;;;;;0.17;0.17;;;25.10;42.10;;;;;;5094223;28;20028;-79
2023/06/29 09:38:50;;;;;;;0.30;0.30;;;25.50;40.40;;;;;;5095722;28;20079;-79
2023/06/29 09:41:16;;;;;;;1.17;1.00;;;26.00;41.20;;;;;;5094000;28;20073;-80
2023/06/29 09:43:42;;;;;;;0.25;0.25;;;26.40;37.50;;;;;;5094180;28;20044;-79
2023/06/29 09:46:09;;;;;;;0.88;0.68;;;26.70;36.30;;;;;;5095039;28;20393;-79
2023/06/29 09:48:48;;;;;;;1.80;0.85;;;27.40;37.70;;;;;;5094085;28;20048;-82
2023/06/29 09:51:21;;;;;;;0.70;0.45;;;28.10;37.10;;;;;;5093730;28;20032;-80
2023/06/29 09:53:48;;;;;;;0.25;0.25;;;29.00;35.50;;;;;;5094299;28;20028;-79
2023/06/29 09:56:15;;;;;;;0.73;0.68;;;30.10;33.80;;;;;;5076444;28;20036;-82
2023/06/29 09:58:42;;;;;;;0.30;0.30;;;30.80;30.90;;;;;;5093829;28;20056;-80
2023/06/29 10:01:09;;;;;;;0.73;0.55;;;31.20;30.30;;;;;;5094590;28;20032;-80
2023/06/29 10:03:35;;;;;;;0.50;0.50;;;31.50;29.60;;;;;;5077109;28;20028;-83
2023/06/29 10:06:43;;;;;;;5.93;1.75;;;32.20;29.70;;;;;;5093334;28;20419;-80
2023/06/29 10:09:16;;;;;;;0.40;0.40;;;32.90;28.10;;;;;;5093070;28;20044;-79
2023/06/29 10:11:44;;;;;;;0.65;0.55;;;33.20;25.10;;;;;;5093032;28;20036;-81
2023/06/29 10:14:14;;;;;;;0.50;0.50;;;33.70;25.60;;;;;;5076518;28;20043;-80
2023/06/29 10:16:45;;;;;;;1.45;1.10;;;34.00;25.70;;;;;;5093103;28;20024;-81
2023/06/29 10:19:30;;;;;;;0.50;0.47;;;35.00;25.10;;;;;;5076845;28;20499;-80
2023/06/29 10:22:07;;;;;;;7.43;6.32;;;35.80;24.20;;;;;;5093063;28;20089;-81
2023/06/29 10:24:40;;;;;;;6.65;2.35;;;36.70;24.60;;;;;;5093360;28;20484;-82
2023/06/29 10:27:08;;;;;;;7.50;3.70;;;37.30;22.70;;;;;;5076129;28;20032;-81
2023/06/29 10:29:53;;;;;;;2.10;1.25;;;37.90;22.30;;;;;;5076299;28;20032;-79
2023/06/29 10:32:58;;;;;;;3.72;2.45;;;38.30;21.80;;;;;;5075875;28;20122;-79
2023/06/29 10:35:27;;;;;;;9.98;0.70;;;38.90;21.40;;;;;;5092583;28;20105;-79
2023/06/29 10:37:57;;;;;;;1.70;0.90;;;39.60;19.30;;;;;;5093097;28;20024;-78
2023/06/29 10:40:26;;;;;;;1.00;0.93;;;40.00;19.40;;;;;;5075763;28;20039;-80
2023/06/29 10:43:12;;;;;;;0.65;0.65;;;40.60;18.60;;;;;;5093105;28;20051;-80
2023/06/29 10:45:39;;;;;;;0.55;0.55;;;41.20;18.50;;;;;;5075618;28;20028;-79
2023/06/29 10:48:26;;;;;;;0.75;0.50;;;41.70;16.90;;;;;;5092939;28;20036;-79
2023/06/29 10:50:52;;;;;;;0.63;0.63;;;41.90;17.50;;;;;;5075285;28;20032;-80
2023/06/29 10:53:21;;;;;;;1.23;0.88;;;42.60;16.90;;;;;;5094194;28;20036;-79
2023/06/29 10:56:07;;;;;;;0.65;0.65;;;43.00;15.80;;;;;;5092185;28;20036;-79
2023/06/29 10:58:53;;;;;;;0.57;0.57;;;43.60;16.10;;;;;;5092520;28;20497;-79
2023/06/29 11:01:19;;;;;;;0.63;0.60;;;44.10;16.10;;;;;;5075339;28;20043;-81
2023/06/29 11:03:47;;;;;;;1.10;0.98;;;44.10;12.90;;;;;;5092636;28;20062;-80
2023/06/29 11:06:13;;;;;;;0.52;0.52;;;44.50;15.10;;;;;;5075328;28;20040;-81
2023/06/29 11:08:39;;;;;;;0.80;0.80;;;45.30;14.70;;;;;;5075339;28;20114;-80
2023/06/29 11:11:23;;;;;;;0.70;0.70;;;45.90;14.70;;;;;;5075098;28;20052;-79
2023/06/29 11:13:50;;;;;;;0.80;0.80;;;46.60;13.90;;;;;;5092466;28;20480;-79
2023/06/29 11:16:16;;;;;;;1.75;1.38;;;47.30;13.90;;;;;;5092056;28;20040;-79
2023/06/29 11:19:02;;;;;;;2.03;1.33;;;47.30;13.10;;;;;;5075425;28;20028;-79
2023/06/29 11:21:28;;;;;;;0.75;0.75;;;47.20;12.00;;;;;;5074197;28;20082;-79
2023/06/29 11:23:55;;;;;;;0.80;0.80;;;47.70;13.40;;;;;;5092312;28;20028;-79
2023/06/29 11:26:22;;;;;;;0.80;0.80;;;48.40;13.10;;;;;;5074867;28;20092;-79
2023/06/29 11:29:09;;;;;;;1.17;1.08;;;48.80;12.80;;;;;;5092223;28;20032;-79
2023/06/29 11:31:35;;;;;;;1.23;1.00;;;49.00;12.20;;;;;;5091542;28;20067;-80
2023/06/29 11:34:01;;;;;;;2.05;1.30;;;49.00;12.70;;;;;;5075168;28;20028;-78
2023/06/29 11:36:29;;;;;;;1.42;1.33;;;49.20;12.40;;;;;;5091433;28;20385;-79
2023/06/29 11:39:14;;;;;;;1.77;1.35;;;49.20;12.00;;;;;;5075160;28;20063;-79
2023/06/29 11:41:41;;;;;;;1.20;1.10;;;48.80;10.70;;;;;;5091565;28;20046;-79
2023/06/29 11:44:08;;;;;;;1.50;1.40;;;48.40;11.70;;;;;;5091848;28;20122;-79
2023/06/29 11:46:35;;;;;;;1.30;1.20;;;49.00;11.60;;;;;;5091459;28;20032;-79
2023/06/29 11:49:20;;;;;;;1.20;1.10;;;49.30;11.80;;;;;;5075113;28;20431;-79
2023/06/29 11:51:46;;;;;;;1.25;1.15;;;48.80;10.90;;;;;;5091378;28;20373;-78
2023/06/29 11:54:14;;;;;;;1.40;1.30;;;49.50;11.40;;;;;;5093129;28;20029;-79
2023/06/29 11:56:42;;;;;;;1.27;1.17;;;50.40;11.60;;;;;;5074478;28;20029;-79
2023/06/29 11:59:12;;;;;;;1.40;1.30;;;50.90;11.30;;;;;;5091824;28;20020;-79
2023/06/29 12:01:39;;;;;;;1.58;1.40;;;51.30;11.40;;;;;;5091354;28;20163;-79
2023/06/29 12:04:25;;;;;;;1.65;1.42;;;51.40;10.90;;;;;;5074939;28;20024;-79
2023/06/29 12:06:57;;;;;;;1.50;1.40;;;51.10;9.70;;;;;;5074443;28;20094;-79
2023/06/29 12:09:34;;;;;;;1.63;1.52;;;50.90;9.70;;;;;;5091316;28;20385;-80
2023/06/29 12:12:02;;;;;;;1.80;1.58;;;50.70;10.50;;;;;;5091237;28;20047;-79
2023/06/29 12:14:47;;;;;;;1.40;1.30;;;50.80;10.40;;;;;;5091551;28;20381;-79
2023/06/29 12:17:33;;;;;;;1.30;1.20;;;50.60;9.40;;;;;;5074777;28;20480;-79
2023/06/29 12:19:59;;;;;;;1.33;1.23;;;50.40;9.50;;;;;;5074828;28;20485;-78
2023/06/29 12:22:25;;;;;;;1.45;1.35;;;50.70;9.50;;;;;;5091132;28;20036;-79
2023/06/29 12:24:52;;;;;;;1.40;1.30;;;51.50;10.20;;;;;;5091601;28;20040;-79
2023/06/29 12:27:18;;;;;;;1.10;1.00;;;51.80;9.70;;;;;;5091192;28;20484;-79
2023/06/29 12:29:44;;;;;;;1.30;1.20;;;51.40;9.30;;;;;;5091415;28;20032;-78
2023/06/29 12:32:10;;;;;;;1.52;1.40;;;51.10;9.80;;;;;;5091362;28;20036;-78
2023/06/29 12:34:36;;;;;;;1.58;1.48;;;51.10;9.90;;;;;;5095485;28;20040;-79
2023/06/29 12:37:02;;;;;;;1.50;1.40;;;50.90;9.80;;;;;;5095278;28;20024;-79
2023/06/29 12:39:28;;;;;;;1.83;1.73;;;51.10;9.70;;;;;;5078313;28;20036;-78
2023/06/29 12:41:55;;;;;;;1.38;1.27;;;51.00;9.90;;;;;;5078135;28;20037;-79
2023/06/29 12:44:21;;;;;;;1.33;1.23;;;50.90;9.70;;;;;;5095318;28;20424;-79
2023/06/29 12:46:47;;;;;;;1.23;1.13;;;50.60;9.40;;;;;;5078164;28;20089;-79
2023/06/29 12:49:13;;;;;;;1.25;1.15;;;50.30;9.10;;;;;;5078214;28;20035;-79
2023/06/29 12:51:39;;;;;;;1.30;1.20;;;50.00;10.00;;;;;;5077738;28;20032;-79
2023/06/29 12:54:05;;;;;;;1.20;1.10;;;50.00;10.10;;;;;;5095209;28;20448;-79
2023/06/29 12:56:31;;;;;;;1.20;1.10;;;49.70;10.40;;;;;;5094705;28;20036;-79
2023/06/29 12:58:57;;;;;;;1.27;1.17;;;49.40;11.00;;;;;;5095202;28;20039;-79
2023/06/29 13:01:24;;;;;;;1.10;1.00;;;48.60;11.00;;;;;;5094673;28;20520;-81
2023/06/29 13:03:50;;;;;;;1.10;1.00;;;47.60;11.30;;;;;;5094998;28;20039;-79
2023/06/29 13:06:16;;;;;;;0.80;0.80;;;46.60;11.90;;;;;;5094588;28;20032;-79
2023/06/29 13:08:43;;;;;;;0.80;0.80;;;44.90;12.60;;;;;;5095705;28;20047;-81